Time;durP1;ratioP1;P1;durP2;ratioP2;P2;SDS_P1;SDS_P2;PMS_P1;PMS_P2;Temp;Humidity;BMP_temperature;BMP_pressure;BME280_temperature;BME280_humidity;BME280_pressure;Samples;Min_cycle;Max_cycle;Signal;HPM_P1;HPM_P2
2021/11/30 00:00:09;;;;;;;14.70;8.33;;;;;;;-145.18;100.00;60484.78;5032559;28;20291;-72
2021/11/30 00:02:35;;;;;;;18.05;7.97;;;;;;;-145.18;100.00;60484.78;5036326;28;20292;-73
2021/11/30 00:05:01;;;;;;;21.33;8.17;;;;;;;-145.18;100.00;60484.78;5034358;28;20029;-72
2021/11/30 00:07:26;;;;;;;19.67;8.23;;;;;;;-145.18;100.00;60484.78;5026480;28;20037;-73
2021/11/30 00:12:20;;;;;;;20.10;8.67;;;;;;;-145.18;100.00;60484.78;5031956;28;20049;-73
2021/11/30 00:14:48;;;;;;;14.87;6.63;;;;;;;-145.18;100.00;60484.78;5033359;28;20029;-73
2021/11/30 00:17:14;;;;;;;15.27;7.30;;;;;;;-145.18;100.00;60484.78;5030076;28;20764;-72
2021/11/30 00:19:41;;;;;;;14.23;6.93;;;;;;;-145.18;100.00;60484.78;5033092;28;20278;-73
2021/11/30 00:22:08;;;;;;;15.07;6.97;;;;;;;-145.18;100.00;60484.78;5036391;28;20275;-73
2021/11/30 00:24:34;;;;;;;22.03;8.07;;;;;;;-145.18;100.00;60484.78;5039110;28;20840;-73
2021/11/30 00:27:01;;;;;;;13.87;6.93;;;;;;;-145.18;100.00;60484.78;5029084;28;20387;-73
2021/11/30 00:29:26;;;;;;;11.10;6.10;;;;;;;-145.18;100.00;60484.78;5033752;28;20187;-73
2021/11/30 00:31:53;;;;;;;12.87;7.37;;;;;;;-145.18;100.00;60484.78;5040956;28;20279;-73
2021/11/30 00:34:19;;;;;;;11.00;5.43;;;;;;;-145.18;100.00;60484.78;5033791;28;20496;-73
2021/11/30 00:36:45;;;;;;;13.90;6.50;;;;;;;-145.18;100.00;60484.78;5014673;28;20361;-73
2021/11/30 00:39:10;;;;;;;15.63;6.60;;;;;;;-145.18;100.00;60484.78;5040760;28;20748;-73
2021/11/30 00:41:36;;;;;;;14.60;6.63;;;;;;;-145.18;100.00;60484.78;5027628;28;20075;-74
2021/11/30 00:44:02;;;;;;;13.50;7.03;;;;;;;-145.18;100.00;60484.78;5031987;28;20612;-73
2021/11/30 00:46:34;;;;;;;13.87;7.27;;;;;;;-145.18;100.00;60484.78;5026035;28;20029;-74
2021/11/30 00:49:03;;;;;;;12.20;5.97;;;;;;;-145.18;100.00;60484.78;5030598;28;20025;-73
2021/11/30 00:51:29;;;;;;;11.80;6.37;;;;;;;-145.18;100.00;60484.78;5032379;28;20314;-73
2021/11/30 00:53:55;;;;;;;10.70;5.10;;;;;;;-145.18;100.00;60484.78;5036929;28;20354;-73
2021/11/30 00:56:21;;;;;;;13.83;6.40;;;;;;;-145.18;100.00;60484.78;5036266;28;20366;-73
2021/11/30 00:58:47;;;;;;;11.57;5.70;;;;;;;-145.18;100.00;60484.78;5031166;28;20036;-73
2021/11/30 01:01:13;;;;;;;11.87;5.83;;;;;;;-145.18;100.00;60484.78;5036095;28;20102;-73
2021/11/30 01:03:40;;;;;;;10.43;5.40;;;;;;;-145.18;100.00;60484.78;5032191;28;20767;-73
2021/11/30 01:06:06;;;;;;;11.20;5.70;;;;;;;-145.18;100.00;60484.78;5028789;28;20465;-74
2021/11/30 01:08:32;;;;;;;13.53;7.07;;;;;;;-145.18;100.00;60484.78;5028795;28;20346;-73
2021/11/30 01:10:58;;;;;;;12.53;6.20;;;;;;;-145.18;100.00;60484.78;5035448;28;20374;-74
2021/11/30 01:13:24;;;;;;;13.20;5.93;;;;;;;-145.18;100.00;60484.78;5032543;28;20094;-74
2021/11/30 01:15:50;;;;;;;12.63;6.33;;;;;;;-145.18;100.00;60484.78;5042577;28;20301;-74
2021/11/30 01:18:16;;;;;;;11.70;6.47;;;;;;;-145.18;100.00;60484.78;5036455;28;20628;-74
2021/11/30 01:20:42;;;;;;;11.97;6.03;;;;;;;-145.18;100.00;60484.78;5025213;28;20029;-72
2021/11/30 01:23:07;;;;;;;13.27;7.00;;;;;;;-145.18;100.00;60484.78;5029862;28;20282;-73
2021/11/30 01:25:34;;;;;;;10.83;4.97;;;;;;;-145.18;100.00;60484.78;5034642;28;20163;-74
2021/11/30 01:28:00;;;;;;;12.90;6.73;;;;;;;-145.18;100.00;60484.78;5032027;28;20047;-73
2021/11/30 01:30:25;;;;;;;14.87;5.63;;;;;;;-145.18;100.00;60484.78;5029408;28;20279;-73
2021/11/30 01:32:51;;;;;;;11.77;5.40;;;;;;;-145.18;100.00;60484.78;5032424;28;20715;-73
2021/11/30 01:35:18;;;;;;;8.90;4.97;;;;;;;-145.18;100.00;60484.78;5029501;28;20036;-72
2021/11/30 01:37:48;;;;;;;8.83;4.63;;;;;;;-145.18;100.00;60484.78;5020848;28;20035;-73
2021/11/30 01:40:17;;;;;;;11.50;4.30;;;;;;;-145.18;100.00;60484.78;5036816;28;20291;-73
2021/11/30 01:42:48;;;;;;;7.90;4.73;;;;;;;-145.18;100.00;60484.78;5039478;28;20278;-73
2021/11/30 01:45:29;;;;;;;9.07;3.30;;;;;;;-145.18;100.00;60484.78;5030461;28;20347;-73
2021/11/30 01:50:31;;;;;;;8.90;3.87;;;;;;;-145.18;100.00;60484.78;5036240;28;20272;-73
2021/11/30 01:52:57;;;;;;;7.57;3.40;;;;;;;-145.18;100.00;60484.78;5028115;28;20268;-73
2021/11/30 01:55:22;;;;;;;6.60;3.10;;;;;;;-145.18;100.00;60484.78;5038554;28;20605;-73
2021/11/30 01:57:50;;;;;;;6.30;2.50;;;;;;;-145.18;100.00;60484.78;5035487;28;20036;-72
2021/11/30 02:00:16;;;;;;;6.67;3.40;;;;;;;-145.18;100.00;60484.78;5033174;28;20042;-73
2021/11/30 02:02:42;;;;;;;7.43;3.30;;;;;;;-145.18;100.00;60484.78;5030719;28;20311;-72
2021/11/30 02:05:08;;;;;;;5.97;3.00;;;;;;;-145.18;100.00;60484.78;5030016;28;20289;-72
2021/11/30 02:07:34;;;;;;;7.13;2.80;;;;;;;-145.18;100.00;60484.78;5038340;28;20067;-73
2021/11/30 02:10:00;;;;;;;8.70;2.80;;;;;;;-145.18;100.00;60484.78;5027415;28;20259;-73
2021/11/30 02:12:25;;;;;;;5.20;2.50;;;;;;;-145.18;100.00;60484.78;5034972;28;20346;-72
2021/11/30 02:14:52;;;;;;;9.40;3.83;;;;;;;-145.18;100.00;60484.78;5035840;28;20075;-73
2021/11/30 02:17:18;;;;;;;5.73;2.50;;;;;;;-145.18;100.00;60484.78;5038654;28;20161;-73
2021/11/30 02:19:52;;;;;;;6.70;2.60;;;;;;;-145.18;100.00;60484.78;5035027;28;20291;-73
2021/11/30 02:22:18;;;;;;;5.20;2.37;;;;;;;-145.18;100.00;60484.78;5033281;28;20036;-73
2021/11/30 02:24:43;;;;;;;5.13;2.27;;;;;;;-145.18;100.00;60484.78;5035354;28;20272;-73
2021/11/30 02:27:09;;;;;;;7.23;2.60;;;;;;;-145.18;100.00;60484.78;5033068;28;20123;-72
2021/11/30 02:29:35;;;;;;;5.07;2.67;;;;;;;-145.18;100.00;60484.78;5030267;28;20045;-74
2021/11/30 02:32:01;;;;;;;7.77;3.17;;;;;;;-145.18;100.00;60484.78;5033437;28;20712;-74
2021/11/30 02:34:26;;;;;;;8.47;3.53;;;;;;;-145.18;100.00;60484.78;5031558;28;20029;-72
2021/11/30 02:36:53;;;;;;;6.93;2.53;;;;;;;-145.18;100.00;60484.78;5032834;28;20060;-72
2021/11/30 02:39:24;;;;;;;6.00;3.07;;;;;;;-145.18;100.00;60484.78;5038399;28;20031;-71
2021/11/30 02:41:52;;;;;;;9.47;2.70;;;;;;;-145.18;100.00;60484.78;5030955;28;20291;-73
2021/11/30 02:44:21;;;;;;;6.90;3.20;;;;;;;-145.18;100.00;60484.78;5029468;28;20656;-73
2021/11/30 02:46:49;;;;;;;4.97;2.40;;;;;;;-145.18;100.00;60484.78;5035922;28;20302;-72
2021/11/30 02:49:18;;;;;;;6.30;3.33;;;;;;;-145.18;100.00;60484.78;5028643;28;20805;-73
2021/11/30 02:51:47;;;;;;;7.20;3.23;;;;;;;-145.18;100.00;60484.78;5033438;28;20337;-73
2021/11/30 02:54:15;;;;;;;7.90;3.30;;;;;;;-145.18;100.00;60484.78;5041470;28;20955;-74
2021/11/30 02:56:53;;;;;;;6.33;3.80;;;;;;;-145.18;100.00;60484.78;5038819;28;20276;-75
2021/11/30 02:59:19;;;;;;;7.13;3.53;;;;;;;-145.18;100.00;60484.78;5032071;28;20351;-73
2021/11/30 03:02:25;;;;;;;12.50;3.40;;;;;;;-145.18;100.00;60484.78;5038464;28;20814;-73
2021/11/30 03:04:54;;;;;;;8.23;4.40;;;;;;;-145.18;100.00;60484.78;5038141;28;20321;-74
2021/11/30 03:07:22;;;;;;;7.27;4.23;;;;;;;-145.18;100.00;60484.78;5039491;28;20311;-74
2021/11/30 03:09:48;;;;;;;11.57;4.20;;;;;;;-145.18;100.00;60484.78;5040707;28;20271;-74
2021/11/30 03:12:13;;;;;;;6.37;3.43;;;;;;;-145.18;100.00;60484.78;5037432;28;20786;-74
2021/11/30 03:14:39;;;;;;;10.00;4.57;;;;;;;-145.18;100.00;60484.78;5034638;28;20087;-74
2021/11/30 03:17:05;;;;;;;9.60;5.13;;;;;;;-145.18;100.00;60484.78;5039362;28;20033;-76
2021/11/30 03:19:31;;;;;;;6.10;3.70;;;;;;;-145.18;100.00;60484.78;5033322;28;20521;-74
2021/11/30 03:21:58;;;;;;;9.90;3.40;;;;;;;-145.18;100.00;60484.78;5028851;28;20291;-75
2021/11/30 03:24:24;;;;;;;8.83;3.70;;;;;;;-145.18;100.00;60484.78;5030624;28;20036;-75
2021/11/30 03:26:50;;;;;;;7.37;4.13;;;;;;;-145.18;100.00;60484.78;5041403;28;20646;-75
2021/11/30 03:29:15;;;;;;;12.47;4.93;;;;;;;-145.18;100.00;60484.78;5031011;28;20425;-73
2021/11/30 03:34:09;;;;;;;9.03;4.53;;;;;;;-145.18;100.00;60484.78;5033523;28;20051;-74
2021/11/30 03:36:36;;;;;;;6.90;4.07;;;;;;;-145.18;100.00;60484.78;5038523;28;20040;-74
2021/11/30 03:39:15;;;;;;;11.50;4.70;;;;;;;-145.18;100.00;60484.78;5034609;28;20286;-74
2021/11/30 03:41:42;;;;;;;8.97;4.77;;;;;;;-145.18;100.00;60484.78;5032028;28;20878;-74
2021/11/30 03:44:08;;;;;;;10.53;4.87;;;;;;;-145.18;100.00;60484.78;5030552;28;20278;-74
2021/11/30 03:46:34;;;;;;;10.93;5.57;;;;;;;-145.18;100.00;60484.78;5037369;28;20370;-75
2021/11/30 03:49:01;;;;;;;11.83;5.10;;;;;;;-145.18;100.00;60484.78;5038757;28;20279;-74
2021/11/30 03:51:26;;;;;;;10.60;4.97;;;;;;;-145.18;100.00;60484.78;5037785;28;20293;-74
2021/11/30 03:53:52;;;;;;;12.03;5.30;;;;;;;-145.18;100.00;60484.78;5034498;28;20272;-74
2021/11/30 03:56:18;;;;;;;12.13;5.30;;;;;;;-145.18;100.00;60484.78;5034123;28;20029;-74
2021/11/30 03:58:43;;;;;;;9.23;5.43;;;;;;;-145.18;100.00;60484.78;5031064;28;20033;-74
2021/11/30 04:01:09;;;;;;;10.27;5.20;;;;;;;-145.18;100.00;60484.78;5034987;28;20032;-73
2021/11/30 04:03:34;;;;;;;12.77;6.03;;;;;;;-145.18;100.00;60484.78;5038238;28;20588;-74
2021/11/30 04:06:03;;;;;;;10.57;5.73;;;;;;;-145.18;100.00;60484.78;5035260;28;20032;-75
2021/11/30 04:08:30;;;;;;;8.80;5.00;;;;;;;-145.18;100.00;60484.78;5032755;28;20510;-75
2021/11/30 04:10:55;;;;;;;9.17;5.03;;;;;;;-145.18;100.00;60484.78;5031514;28;20268;-74
2021/11/30 04:13:20;;;;;;;9.17;4.80;;;;;;;-145.18;100.00;60484.78;5040197;28;20337;-73
2021/11/30 04:15:46;;;;;;;13.83;5.17;;;;;;;-145.18;100.00;60484.78;5034840;28;20095;-74
2021/11/30 04:18:11;;;;;;;11.53;6.17;;;;;;;-145.18;100.00;60484.78;5032306;28;20029;-74
2021/11/30 04:20:37;;;;;;;12.03;5.70;;;;;;;-145.18;100.00;60484.78;5035926;28;20066;-74
2021/11/30 04:23:03;;;;;;;10.40;5.30;;;;;;;-145.18;100.00;60484.78;5031588;28;20557;-74
2021/11/30 04:25:28;;;;;;;9.77;5.50;;;;;;;-145.18;100.00;60484.78;5032563;28;20645;-74
2021/11/30 04:27:54;;;;;;;10.57;5.57;;;;;;;-145.18;100.00;60484.78;5030359;28;20120;-74
2021/11/30 04:30:19;;;;;;;13.93;5.73;;;;;;;-145.18;100.00;60484.78;5038732;28;20432;-74
2021/11/30 04:32:45;;;;;;;11.13;6.10;;;;;;;-145.18;100.00;60484.78;5036736;28;20111;-73
2021/11/30 04:35:11;;;;;;;12.23;6.20;;;;;;;-145.18;100.00;60484.78;5035365;28;20529;-74
2021/11/30 04:37:37;;;;;;;10.50;5.70;;;;;;;-145.18;100.00;60484.78;5038430;28;20063;-74
2021/11/30 04:40:05;;;;;;;10.30;5.90;;;;;;;-145.18;100.00;60484.78;5034851;28;20295;-74
2021/11/30 04:42:32;;;;;;;14.97;7.77;;;;;;;-145.18;100.00;60484.78;5029684;28;20276;-74
2021/11/30 04:45:21;;;;;;;11.13;6.33;;;;;;;-145.18;100.00;60484.78;5031709;28;20922;-74
2021/11/30 04:47:43;;;;;;;9.67;5.73;;;;;;;-145.18;100.00;60484.78;5033990;28;20317;-73
2021/11/30 04:50:17;;;;;;;12.40;7.20;;;;;;;-145.18;100.00;60484.78;5040244;28;20298;-75
2021/11/30 04:52:45;;;;;;;14.20;7.83;;;;;;;-145.18;100.00;60484.78;5037726;28;20667;-74
2021/11/30 04:55:10;;;;;;;12.07;6.17;;;;;;;-145.18;100.00;60484.78;5032986;28;20303;-73
2021/11/30 04:57:36;;;;;;;12.97;7.47;;;;;;;-145.18;100.00;60484.78;5040783;28;20836;-74
2021/11/30 05:00:02;;;;;;;14.23;7.17;;;;;;;-145.18;100.00;60484.78;5035984;28;20065;-74
2021/11/30 05:02:28;;;;;;;14.33;6.87;;;;;;;-145.18;100.00;60484.78;5033914;28;20056;-74
2021/11/30 05:04:53;;;;;;;14.43;8.33;;;;;;;-145.18;100.00;60484.78;5033729;28;20276;-73
2021/11/30 05:07:19;;;;;;;14.80;7.67;;;;;;;-145.18;100.00;60484.78;5027216;28;20105;-73
2021/11/30 05:09:45;;;;;;;13.67;6.63;;;;;;;-145.18;100.00;60484.78;5033610;28;20056;-73
2021/11/30 05:12:11;;;;;;;12.57;6.77;;;;;;;-145.18;100.00;60484.78;5032174;28;20029;-74
2021/11/30 05:14:38;;;;;;;14.20;7.30;;;;;;;-145.18;100.00;60484.78;5038324;28;20033;-75
2021/11/30 05:17:03;;;;;;;14.37;7.07;;;;;;;-145.18;100.00;60484.78;5029271;28;20268;-73
2021/11/30 05:19:29;;;;;;;18.77;8.00;;;;;;;-145.18;100.00;60484.78;5030857;28;20295;-75
2021/11/30 05:21:55;;;;;;;13.57;7.13;;;;;;;-145.18;100.00;60484.78;5037824;28;20095;-74
2021/11/30 05:24:21;;;;;;;17.17;8.07;;;;;;;-145.18;100.00;60484.78;5038075;28;20024;-74
2021/11/30 05:26:48;;;;;;;13.33;6.73;;;;;;;-145.18;100.00;60484.78;5038769;28;20681;-74
2021/11/30 05:29:14;;;;;;;11.83;6.43;;;;;;;-145.18;100.00;60484.78;5032504;28;20271;-75
2021/11/30 05:31:40;;;;;;;13.07;6.87;;;;;;;-145.18;100.00;60484.78;5040155;28;20263;-74
2021/11/30 05:34:05;;;;;;;13.33;7.33;;;;;;;-145.18;100.00;60484.78;5034356;28;20275;-74
2021/11/30 05:36:33;;;;;;;18.43;8.67;;;;;;;-145.18;100.00;60484.78;5037028;28;20432;-74
2021/11/30 05:39:00;;;;;;;13.63;6.50;;;;;;;-145.18;100.00;60484.78;5029236;28;20028;-74
2021/11/30 05:41:26;;;;;;;14.20;6.93;;;;;;;-145.18;100.00;60484.78;5038527;28;20298;-74
2021/11/30 05:43:52;;;;;;;14.47;6.70;;;;;;;-145.18;100.00;60484.78;5037775;28;20329;-75
2021/11/30 05:46:19;;;;;;;16.90;8.50;;;;;;;-145.18;100.00;60484.78;5035631;28;20071;-74
2021/11/30 05:48:44;;;;;;;15.80;8.00;;;;;;;-145.18;100.00;60484.78;5032930;28;20294;-73
2021/11/30 05:51:10;;;;;;;15.77;7.67;;;;;;;-145.18;100.00;60484.78;5033267;28;20263;-74
2021/11/30 05:53:35;;;;;;;18.10;8.50;;;;;;;-145.18;100.00;60484.78;5032685;28;20613;-74
2021/11/30 05:56:04;;;;;;;17.03;7.33;;;;;;;-145.18;100.00;60484.78;5035745;28;20028;-74
2021/11/30 05:58:34;;;;;;;16.80;7.40;;;;;;;-145.18;100.00;60484.78;5030582;28;20059;-75
2021/11/30 06:01:06;;;;;;;13.10;7.33;;;;;;;-145.18;100.00;60484.78;5033217;28;20279;-74
2021/11/30 06:03:35;;;;;;;10.27;5.95;;;;;;;-145.18;100.00;60484.78;5031962;28;20302;-75
2021/11/30 06:06:01;;;;;;;11.90;6.93;;;;;;;-145.18;100.00;60484.78;5032384;28;20029;-74
2021/11/30 06:08:26;;;;;;;11.47;5.50;;;;;;;-145.18;100.00;60484.78;5032381;28;20283;-74
2021/11/30 06:10:52;;;;;;;11.97;6.53;;;;;;;-145.18;100.00;60484.78;5032236;28;20037;-74
2021/11/30 06:13:17;;;;;;;14.90;6.83;;;;;;;-145.18;100.00;60484.78;5036158;28;20072;-74
2021/11/30 06:15:43;;;;;;;10.83;5.33;;;;;;;-145.18;100.00;60484.78;5026790;28;20033;-74
2021/11/30 06:18:08;;;;;;;7.80;4.63;;;;;;;-145.18;100.00;60484.78;5038924;28;20025;-73
2021/11/30 06:20:35;;;;;;;11.97;6.10;;;;;;;-145.18;100.00;60484.78;5033550;28;20021;-74
2021/11/30 06:23:01;;;;;;;13.77;6.67;;;;;;;-145.18;100.00;60484.78;5029107;28;20198;-74
2021/11/30 06:25:27;;;;;;;12.00;5.77;;;;;;;-145.18;100.00;60484.78;5038132;28;20282;-75
2021/11/30 06:27:54;;;;;;;11.33;6.10;;;;;;;-145.18;100.00;60484.78;5028169;28;20513;-74
2021/11/30 06:30:19;;;;;;;14.70;6.90;;;;;;;-145.18;100.00;60484.78;5040149;28;20021;-74
2021/11/30 06:32:45;;;;;;;10.27;5.90;;;;;;;-145.18;100.00;60484.78;5036901;28;20404;-74
2021/11/30 06:35:10;;;;;;;10.23;4.83;;;;;;;-145.18;100.00;60484.78;5035426;28;20025;-73
2021/11/30 06:37:36;;;;;;;11.40;6.07;;;;;;;-145.18;100.00;60484.78;5038257;28;20028;-74
2021/11/30 06:40:02;;;;;;;13.33;6.63;;;;;;;-145.18;100.00;60484.78;5037540;28;20079;-75
2021/11/30 06:42:28;;;;;;;11.50;5.53;;;;;;;-145.18;100.00;60484.78;5033270;28;20036;-74
2021/11/30 06:44:53;;;;;;;12.23;5.40;;;;;;;-145.18;100.00;60484.78;5035780;28;20268;-74
2021/11/30 06:47:19;;;;;;;10.37;5.47;;;;;;;-145.18;100.00;60484.78;5033964;28;20576;-73
2021/11/30 06:49:45;;;;;;;11.57;5.17;;;;;;;-145.18;100.00;60484.78;5017725;28;20028;-74
2021/11/30 06:52:11;;;;;;;12.57;6.90;;;;;;;-145.18;100.00;60484.78;5035573;28;20083;-74
2021/11/30 06:54:42;;;;;;;12.20;5.63;;;;;;;-145.18;100.00;60484.78;5037734;28;20024;-75
2021/11/30 06:57:09;;;;;;;11.88;6.32;;;;;;;-145.18;100.00;60484.78;5039764;28;20032;-75
2021/11/30 06:59:34;;;;;;;13.43;6.33;;;;;;;-145.18;100.00;60484.78;5041278;28;20663;-75
2021/11/30 07:01:59;;;;;;;12.03;5.73;;;;;;;-145.18;100.00;60484.78;5041748;28;20098;-75
2021/11/30 07:04:27;;;;;;;14.17;6.47;;;;;;;-145.18;100.00;60484.78;5041586;28;20099;-75
2021/11/30 07:07:33;;;;;;;12.70;5.90;;;;;;;-145.18;100.00;60484.78;5044251;28;20032;-74
2021/11/30 07:15:04;;;;;;;12.17;5.17;;;;;;;-145.18;100.00;60484.78;5042848;28;20397;-75
2021/11/30 07:17:31;;;;;;;12.97;6.50;;;;;;;-145.18;100.00;60484.78;5042868;28;20106;-74
2021/11/30 07:19:57;;;;;;;13.90;6.77;;;;;;;-145.18;100.00;60484.78;5045117;28;20564;-74
2021/11/30 07:22:23;;;;;;;12.07;6.10;;;;;;;-145.18;100.00;60484.78;5045487;28;20120;-74
2021/11/30 07:24:48;;;;;;;12.87;6.43;;;;;;;-145.18;100.00;60484.78;5045319;28;20040;-74
2021/11/30 07:27:14;;;;;;;10.07;4.73;;;;;;;-145.18;100.00;60484.78;5043544;28;20036;-74
2021/11/30 07:29:39;;;;;;;14.87;5.87;;;;;;;-145.18;100.00;60484.78;5044682;28;20017;-75
2021/11/30 07:32:05;;;;;;;13.27;5.53;;;;;;;-145.18;100.00;60484.78;5043448;28;20036;-74
2021/11/30 07:34:30;;;;;;;9.50;4.93;;;;;;;-145.18;100.00;60484.78;5039698;28;20053;-75
2021/11/30 07:36:56;;;;;;;14.07;5.73;;;;;;;-145.18;100.00;60484.78;5044948;28;20098;-74
2021/11/30 07:39:21;;;;;;;13.67;6.63;;;;;;;-145.18;100.00;60484.78;5044669;28;20017;-74
2021/11/30 07:41:47;;;;;;;12.70;5.90;;;;;;;-145.18;100.00;60484.78;5045433;28;20071;-74
2021/11/30 07:44:12;;;;;;;12.37;5.80;;;;;;;-145.18;100.00;60484.78;5042587;28;20031;-75
2021/11/30 07:46:38;;;;;;;11.40;5.23;;;;;;;-145.18;100.00;60484.78;5037886;28;20028;-75
2021/11/30 07:49:04;;;;;;;14.50;6.00;;;;;;;-145.18;100.00;60484.78;5026282;28;20370;-76
2021/11/30 07:51:32;;;;;;;13.20;5.00;;;;;;;-145.18;100.00;60484.78;5042654;28;20047;-75
2021/11/30 07:53:57;;;;;;;17.07;5.57;;;;;;;-145.18;100.00;60484.78;5038927;28;20504;-75
2021/11/30 07:56:23;;;;;;;12.43;4.47;;;;;;;-145.18;100.00;60484.78;5037345;28;20036;-75
2021/11/30 07:58:48;;;;;;;8.23;3.93;;;;;;;-145.18;100.00;60484.78;5042822;28;20044;-76
2021/11/30 08:01:15;;;;;;;12.33;5.03;;;;;;;-145.18;100.00;60484.78;5038943;28;20028;-76
2021/11/30 08:03:41;;;;;;;7.97;3.23;;;;;;;-145.18;100.00;60484.78;5034788;28;20767;-75
2021/11/30 08:06:06;;;;;;;11.97;4.50;;;;;;;-145.18;100.00;60484.78;5042635;28;20037;-74
2021/11/30 08:08:32;;;;;;;10.00;4.00;;;;;;;-145.18;100.00;60484.78;5043339;28;20016;-75
2021/11/30 08:10:58;;;;;;;11.47;3.90;;;;;;;-145.18;100.00;60484.78;5041360;28;20134;-76
2021/11/30 08:13:23;;;;;;;6.00;2.97;;;;;;;-145.18;100.00;60484.78;5042301;28;20717;-75
2021/11/30 08:15:49;;;;;;;13.40;3.40;;;;;;;-145.18;100.00;60484.78;5042550;28;20055;-75
2021/11/30 08:18:15;;;;;;;8.63;3.20;;;;;;;-145.18;100.00;60484.78;5042223;28;20041;-75
2021/11/30 08:20:40;;;;;;;10.60;2.90;;;;;;;-145.18;100.00;60484.78;5044376;28;20112;-75
2021/11/30 08:23:07;;;;;;;6.30;2.43;;;;;;;-145.18;100.00;60484.78;5042907;28;20079;-75
2021/11/30 08:25:33;;;;;;;7.83;2.70;;;;;;;-145.18;100.00;60484.78;5040310;28;20050;-75
2021/11/30 08:27:59;;;;;;;6.37;2.33;;;;;;;-145.18;100.00;60484.78;5042167;28;20112;-75
2021/11/30 08:30:24;;;;;;;7.90;2.27;;;;;;;-145.18;100.00;60484.78;5042978;28;20482;-75
2021/11/30 08:32:50;;;;;;;6.60;2.90;;;;;;;-145.18;100.00;60484.78;5045416;28;20036;-75
2021/11/30 08:35:16;;;;;;;6.13;2.50;;;;;;;-145.18;100.00;60484.78;5042447;28;20024;-75
2021/11/30 08:37:42;;;;;;;5.60;2.13;;;;;;;-145.18;100.00;60484.78;5041829;28;20389;-75
2021/11/30 08:40:09;;;;;;;7.73;2.30;;;;;;;-145.18;100.00;60484.78;5040996;28;20104;-74
2021/11/30 08:42:36;;;;;;;11.73;1.97;;;;;;;-145.18;100.00;60484.78;5041560;28;20028;-75
2021/11/30 08:45:03;;;;;;;5.03;2.27;;;;;;;-145.18;100.00;60484.78;5041073;28;20040;-74
2021/11/30 08:47:28;;;;;;;6.10;2.33;;;;;;;-145.18;100.00;60484.78;5043300;28;20131;-74
2021/11/30 08:49:54;;;;;;;6.47;1.60;;;;;;;-145.18;100.00;60484.78;5039220;28;20489;-74
2021/11/30 08:52:28;;;;;;;5.53;1.80;;;;;;;-145.18;100.00;60484.78;5041004;28;20663;-74
2021/11/30 08:54:55;;;;;;;10.70;1.57;;;;;;;-145.18;100.00;60484.78;5035848;28;20648;-76
2021/11/30 08:57:23;;;;;;;4.37;1.20;;;;;;;-145.18;100.00;60484.78;5040931;28;20108;-74
2021/11/30 08:59:48;;;;;;;10.23;1.57;;;;;;;-145.18;100.00;60484.78;5040466;28;20668;-75
2021/11/30 09:02:15;;;;;;;5.70;1.33;;;;;;;-145.18;100.00;60484.78;5036937;28;20045;-75
2021/11/30 09:04:41;;;;;;;5.87;1.30;;;;;;;-145.18;100.00;60484.78;5036564;28;20670;-75
2021/11/30 09:07:06;;;;;;;4.57;1.10;;;;;;;-145.18;100.00;60484.78;5039601;28;20116;-74
2021/11/30 09:09:32;;;;;;;7.93;1.63;;;;;;;-145.18;100.00;60484.78;5040175;28;20108;-74
2021/11/30 09:11:58;;;;;;;7.07;1.83;;;;;;;-145.18;100.00;60484.78;5038095;28;20407;-75
2021/11/30 09:14:25;;;;;;;3.97;0.87;;;;;;;-145.18;100.00;60484.78;5039235;28;20013;-75
2021/11/30 09:16:53;;;;;;;4.60;0.90;;;;;;;-145.18;100.00;60484.78;5039320;28;20409;-74
2021/11/30 09:19:19;;;;;;;5.80;1.27;;;;;;;-145.18;100.00;60484.78;5039260;28;20032;-75
2021/11/30 09:21:45;;;;;;;6.80;1.00;;;;;;;-145.18;100.00;60484.78;5039791;28;20024;-75
2021/11/30 09:24:11;;;;;;;6.80;1.13;;;;;;;-145.18;100.00;60484.78;5038815;28;20028;-73
2021/11/30 09:26:37;;;;;;;6.60;1.33;;;;;;;-145.18;100.00;60484.78;5037647;28;20113;-74
2021/11/30 09:29:04;;;;;;;9.13;1.00;;;;;;;-145.18;100.00;60484.78;5039802;28;20408;-74
2021/11/30 09:31:29;;;;;;;4.10;1.10;;;;;;;-145.18;100.00;60484.78;5040328;28;20029;-74
2021/11/30 09:33:55;;;;;;;6.03;1.80;;;;;;;-145.18;100.00;60484.78;5037115;28;20750;-74
2021/11/30 09:36:20;;;;;;;4.47;0.63;;;;;;;-145.18;100.00;60484.78;5037958;28;20479;-74
2021/11/30 09:38:46;;;;;;;6.10;1.73;;;;;;;-145.18;100.00;60484.78;5039134;28;20037;-74
2021/11/30 09:41:12;;;;;;;9.87;1.47;;;;;;;-145.18;100.00;60484.78;5039010;28;20028;-74
2021/11/30 09:43:38;;;;;;;10.63;1.80;;;;;;;-145.18;100.00;60484.78;5038797;28;20035;-73
2021/11/30 09:46:06;;;;;;;2.90;0.83;;;;;;;-145.18;100.00;60484.78;5038052;28;20052;-74
2021/11/30 09:48:33;;;;;;;7.07;1.00;;;;;;;-145.18;100.00;60484.78;5039863;28;20638;-74
2021/11/30 09:50:59;;;;;;;5.13;1.00;;;;;;;-145.18;100.00;60484.78;5036829;28;20440;-75
2021/11/30 09:53:27;;;;;;;2.40;0.73;;;;;;;-145.18;100.00;60484.78;5038969;28;20582;-75
2021/11/30 09:55:54;;;;;;;5.87;1.43;;;;;;;-145.18;100.00;60484.78;5037842;28;20112;-74
2021/11/30 09:58:22;;;;;;;6.13;1.57;;;;;;;-145.18;100.00;60484.78;5038438;28;20201;-73
2021/11/30 10:00:49;;;;;;;7.00;1.10;;;;;;;-145.18;100.00;60484.78;5037426;28;20069;-74
2021/11/30 10:03:15;;;;;;;5.00;1.20;;;;;;;-145.18;100.00;60484.78;5041997;28;20037;-73
2021/11/30 10:05:42;;;;;;;9.07;1.67;;;;;;;-145.18;100.00;60484.78;5043201;28;20021;-74
2021/11/30 10:08:23;;;;;;;8.20;2.17;;;;;;;-145.18;100.00;60484.78;5043936;28;20474;-72
2021/11/30 10:10:48;;;;;;;3.47;1.00;;;;;;;-145.18;100.00;60484.78;5044195;28;20029;-73
2021/11/30 10:13:14;;;;;;;4.90;1.23;;;;;;;-145.18;100.00;60484.78;5042860;28;20834;-73
2021/11/30 10:15:45;;;;;;;6.43;1.10;;;;;;;-145.18;100.00;60484.78;5043473;28;20530;-73
2021/11/30 10:18:16;;;;;;;4.93;1.00;;;;;;;-145.18;100.00;60484.78;5043642;28;20636;-73
2021/11/30 10:20:42;;;;;;;10.50;1.27;;;;;;;-145.18;100.00;60484.78;5041614;28;20033;-73
2021/11/30 10:23:08;;;;;;;6.43;1.47;;;;;;;-145.18;100.00;60484.78;5041978;28;20032;-73
2021/11/30 10:25:36;;;;;;;5.50;1.10;;;;;;;-145.18;100.00;60484.78;5044520;28;20037;-73
2021/11/30 10:28:11;;;;;;;8.13;1.23;;;;;;;-145.18;100.00;60484.78;5043347;28;20032;-73
2021/11/30 10:30:43;;;;;;;6.37;1.23;;;;;;;-145.18;100.00;60484.78;5041576;28;20047;-73
2021/11/30 10:33:22;;;;;;;13.50;1.90;;;;;;;-145.18;100.00;60484.78;5031867;28;20111;-73
2021/11/30 10:35:57;;;;;;;10.97;1.40;;;;;;;-145.18;100.00;60484.78;5043719;28;20044;-73
2021/11/30 10:38:32;;;;;;;7.83;1.73;;;;;;;-145.18;100.00;60484.78;5044815;28;20032;-73
2021/11/30 10:41:14;;;;;;;4.20;1.27;;;;;;;-145.18;100.00;60484.78;5048814;28;20667;-73
2021/11/30 10:44:03;;;;;;;7.93;1.50;;;;;;;-145.18;100.00;60484.78;5044482;28;20078;-73
2021/11/30 10:46:36;;;;;;;4.70;0.90;;;;;;;-145.18;100.00;60484.78;5044480;28;20444;-73
2021/11/30 10:49:01;;;;;;;;;;;;;;;-145.18;100.00;60484.78;5041754;28;20024;-73
2021/11/30 10:51:28;;;;;;;8.10;1.80;;;;;;;-145.18;100.00;60484.78;5044227;28;19912;-73
2021/11/30 10:53:59;;;;;;;6.37;1.37;;;;;;;-145.18;100.00;60484.78;5044621;28;20024;-73
2021/11/30 10:56:25;;;;;;;7.57;1.63;;;;;;;-145.18;100.00;60484.78;5044115;28;20052;-73
2021/11/30 10:58:54;;;;;;;4.80;0.97;;;;;;;-145.18;100.00;60484.78;5041753;28;20056;-73
2021/11/30 11:01:22;;;;;;;7.70;1.00;;;;;;;-145.18;100.00;60484.78;5035223;28;20029;-73
2021/11/30 11:04:16;;;;;;;4.73;1.17;;;;;;;-145.18;100.00;60484.78;5042882;28;20057;-73
2021/11/30 11:07:11;;;;;;;8.83;1.10;;;;;;;-145.18;100.00;60484.78;5040362;28;20027;-73
2021/11/30 11:09:46;;;;;;;8.70;1.83;;;;;;;-145.18;100.00;60484.78;5041934;28;20500;-73
2021/11/30 11:12:13;;;;;;;7.40;1.03;;;;;;;-145.18;100.00;60484.78;5041013;28;20465;-72
2021/11/30 11:14:47;;;;;;;11.13;2.03;;;;;;;-145.18;100.00;60484.78;5040530;28;20067;-73
2021/11/30 11:17:30;;;;;;;13.17;1.60;;;;;;;-145.18;100.00;60484.78;5051963;28;20051;-74